< < Back
Terminal Aerodrome Forecast


Current Version              Previous Versions:   1  2  3  4  5  6  7  8  9  

Terminal Aerodrome Forecast

150
FTUS44 KMRX 161720
TAFCHA
TAF
KCHA 161720Z 1618/1718 05007KT P6SM SKC
     FM170000 10003KT P6SM SKC
     FM171400 15009KT P6SM SCT250=

Latest METAR

675
SAUS80 KWBC 170400
MTRCHA
METAR KCHA 170353Z 16006KT 10SM CLR 12/M03 A3029 RMK AO2 SLP255 LAST
T01221033 $


USA.gov is the U.S. government's official web portal to all federal, state and local government web resources and services.